sensor_id;sensor_type;location;lat;lon;timestamp;P1;durP1;ratioP1;P2;durP2;ratioP2
11078;SDS011;5592;49.234;7.268;2023-08-12T00:00:22;5.73;;;4.50;;
11078;SDS011;5592;49.234;7.268;2023-08-12T00:02:47;5.40;;;4.87;;
11078;SDS011;5592;49.234;7.268;2023-08-12T00:05:13;7.07;;;4.50;;
11078;SDS011;5592;49.234;7.268;2023-08-12T00:07:39;5.17;;;4.50;;
11078;SDS011;5592;49.234;7.268;2023-08-12T00:10:06;6.30;;;4.40;;
11078;SDS011;5592;49.234;7.268;2023-08-12T00:12:35;9.40;;;4.57;;
11078;SDS011;5592;49.234;7.268;2023-08-12T00:15:01;6.30;;;4.30;;
11078;SDS011;5592;49.234;7.268;2023-08-12T00:17:29;9.73;;;4.40;;
11078;SDS011;5592;49.234;7.268;2023-08-12T00:19:55;10.63;;;4.70;;
11078;SDS011;5592;49.234;7.268;2023-08-12T00:22:21;8.97;;;3.93;;
11078;SDS011;5592;49.234;7.268;2023-08-12T00:24:47;9.57;;;4.60;;
11078;SDS011;5592;49.234;7.268;2023-08-12T00:27:13;6.47;;;4.73;;
11078;SDS011;5592;49.234;7.268;2023-08-12T00:29:39;5.80;;;5.20;;
11078;SDS011;5592;49.234;7.268;2023-08-12T00:32:05;7.90;;;6.37;;
11078;SDS011;5592;49.234;7.268;2023-08-12T00:34:30;6.30;;;5.33;;
11078;SDS011;5592;49.234;7.268;2023-08-12T00:36:56;6.30;;;5.50;;
11078;SDS011;5592;49.234;7.268;2023-08-12T00:39:22;11.30;;;5.30;;
11078;SDS011;5592;49.234;7.268;2023-08-12T00:41:47;7.03;;;4.40;;
11078;SDS011;5592;49.234;7.268;2023-08-12T00:44:13;7.50;;;5.33;;
11078;SDS011;5592;49.234;7.268;2023-08-12T00:46:39;11.17;;;6.03;;
11078;SDS011;5592;49.234;7.268;2023-08-12T00:49:07;19.60;;;6.00;;
11078;SDS011;5592;49.234;7.268;2023-08-12T00:51:33;6.00;;;5.40;;
11078;SDS011;5592;49.234;7.268;2023-08-12T00:54:00;5.80;;;5.00;;
11078;SDS011;5592;49.234;7.268;2023-08-12T00:56:29;6.77;;;5.30;;
11078;SDS011;5592;49.234;7.268;2023-08-12T00:58:56;8.50;;;6.10;;
11078;SDS011;5592;49.234;7.268;2023-08-12T01:01:23;6.20;;;4.90;;
11078;SDS011;5592;49.234;7.268;2023-08-12T01:03:48;7.43;;;5.10;;
11078;SDS011;5592;49.234;7.268;2023-08-12T01:06:16;10.07;;;5.80;;
11078;SDS011;5592;49.234;7.268;2023-08-12T01:08:42;6.10;;;5.20;;
11078;SDS011;5592;49.234;7.268;2023-08-12T01:14:08;10.13;;;5.07;;
11078;SDS011;5592;49.234;7.268;2023-08-12T01:16:45;9.47;;;5.03;;
11078;SDS011;5592;49.234;7.268;2023-08-12T01:19:21;10.50;;;4.90;;
11078;SDS011;5592;49.234;7.268;2023-08-12T01:22:01;6.43;;;5.60;;
11078;SDS011;5592;49.234;7.268;2023-08-12T01:24:38;7.03;;;5.60;;
11078;SDS011;5592;49.234;7.268;2023-08-12T01:27:06;11.33;;;5.40;;
11078;SDS011;5592;49.234;7.268;2023-08-12T01:29:32;10.23;;;6.00;;
11078;SDS011;5592;49.234;7.268;2023-08-12T01:35:07;7.13;;;6.20;;
11078;SDS011;5592;49.234;7.268;2023-08-12T01:37:40;9.63;;;6.80;;
11078;SDS011;5592;49.234;7.268;2023-08-12T01:40:08;10.10;;;6.30;;
11078;SDS011;5592;49.234;7.268;2023-08-12T01:42:36;13.10;;;8.10;;
11078;SDS011;5592;49.234;7.268;2023-08-12T01:45:03;10.97;;;8.37;;
11078;SDS011;5592;49.234;7.268;2023-08-12T01:47:32;11.77;;;7.57;;
11078;SDS011;5592;49.234;7.268;2023-08-12T01:49:58;11.23;;;7.30;;
11078;SDS011;5592;49.234;7.268;2023-08-12T01:52:24;10.47;;;8.10;;
11078;SDS011;5592;49.234;7.268;2023-08-12T01:54:50;10.73;;;8.17;;
11078;SDS011;5592;49.234;7.268;2023-08-12T01:57:16;13.97;;;8.47;;
11078;SDS011;5592;49.234;7.268;2023-08-12T01:59:42;10.00;;;8.23;;
11078;SDS011;5592;49.234;7.268;2023-08-12T02:02:10;10.40;;;7.60;;
11078;SDS011;5592;49.234;7.268;2023-08-12T02:04:36;11.57;;;7.50;;
11078;SDS011;5592;49.234;7.268;2023-08-12T02:07:02;11.83;;;7.60;;
11078;SDS011;5592;49.234;7.268;2023-08-12T02:09:28;10.27;;;7.00;;
11078;SDS011;5592;49.234;7.268;2023-08-12T02:11:55;10.13;;;6.60;;
11078;SDS011;5592;49.234;7.268;2023-08-12T02:14:21;17.43;;;7.00;;
11078;SDS011;5592;49.234;7.268;2023-08-12T02:16:47;10.83;;;7.47;;
11078;SDS011;5592;49.234;7.268;2023-08-12T02:19:13;10.00;;;7.40;;
11078;SDS011;5592;49.234;7.268;2023-08-12T02:21:38;9.60;;;7.20;;
11078;SDS011;5592;49.234;7.268;2023-08-12T02:24:04;9.83;;;7.13;;
11078;SDS011;5592;49.234;7.268;2023-08-12T02:26:30;7.97;;;6.47;;
11078;SDS011;5592;49.234;7.268;2023-08-12T02:28:55;11.37;;;6.80;;
11078;SDS011;5592;49.234;7.268;2023-08-12T02:31:21;11.20;;;7.47;;
11078;SDS011;5592;49.234;7.268;2023-08-12T02:33:47;7.27;;;6.23;;
11078;SDS011;5592;49.234;7.268;2023-08-12T02:36:14;8.50;;;6.67;;
11078;SDS011;5592;49.234;7.268;2023-08-12T02:38:40;10.43;;;7.30;;
11078;SDS011;5592;49.234;7.268;2023-08-12T02:41:05;9.63;;;7.83;;
11078;SDS011;5592;49.234;7.268;2023-08-12T02:43:31;14.67;;;8.00;;
11078;SDS011;5592;49.234;7.268;2023-08-12T02:45:56;16.80;;;7.57;;
11078;SDS011;5592;49.234;7.268;2023-08-12T02:48:22;12.17;;;7.60;;
11078;SDS011;5592;49.234;7.268;2023-08-12T02:50:48;10.43;;;6.90;;
11078;SDS011;5592;49.234;7.268;2023-08-12T02:53:14;10.63;;;7.43;;
11078;SDS011;5592;49.234;7.268;2023-08-12T02:55:40;15.40;;;9.00;;
11078;SDS011;5592;49.234;7.268;2023-08-12T02:58:06;9.53;;;7.47;;
11078;SDS011;5592;49.234;7.268;2023-08-12T03:00:32;12.87;;;8.87;;
11078;SDS011;5592;49.234;7.268;2023-08-12T03:02:57;14.33;;;10.47;;
11078;SDS011;5592;49.234;7.268;2023-08-12T03:05:26;18.30;;;10.37;;
11078;SDS011;5592;49.234;7.268;2023-08-12T03:07:51;16.00;;;9.90;;
11078;SDS011;5592;49.234;7.268;2023-08-12T03:10:17;10.47;;;9.37;;
11078;SDS011;5592;49.234;7.268;2023-08-12T03:12:43;16.40;;;9.90;;
11078;SDS011;5592;49.234;7.268;2023-08-12T03:15:09;8.60;;;7.70;;
11078;SDS011;5592;49.234;7.268;2023-08-12T03:17:35;10.30;;;7.60;;
11078;SDS011;5592;49.234;7.268;2023-08-12T03:20:03;13.13;;;9.00;;
11078;SDS011;5592;49.234;7.268;2023-08-12T03:22:30;11.77;;;8.67;;
11078;SDS011;5592;49.234;7.268;2023-08-12T03:24:56;11.33;;;9.57;;
11078;SDS011;5592;49.234;7.268;2023-08-12T03:27:22;12.37;;;9.43;;
11078;SDS011;5592;49.234;7.268;2023-08-12T03:29:47;16.80;;;8.80;;
11078;SDS011;5592;49.234;7.268;2023-08-12T03:32:13;10.60;;;8.57;;
11078;SDS011;5592;49.234;7.268;2023-08-12T03:34:39;14.90;;;8.57;;
11078;SDS011;5592;49.234;7.268;2023-08-12T03:37:04;11.10;;;7.90;;
11078;SDS011;5592;49.234;7.268;2023-08-12T03:39:30;19.63;;;8.63;;
11078;SDS011;5592;49.234;7.268;2023-08-12T03:41:56;9.43;;;7.93;;
11078;SDS011;5592;49.234;7.268;2023-08-12T03:44:21;11.73;;;7.60;;
11078;SDS011;5592;49.234;7.268;2023-08-12T03:46:47;9.87;;;8.10;;
11078;SDS011;5592;49.234;7.268;2023-08-12T03:49:13;23.50;;;8.40;;
11078;SDS011;5592;49.234;7.268;2023-08-12T03:51:38;37.03;;;9.87;;
11078;SDS011;5592;49.234;7.268;2023-08-12T03:54:04;23.13;;;7.97;;
11078;SDS011;5592;49.234;7.268;2023-08-12T03:56:30;13.87;;;8.00;;
11078;SDS011;5592;49.234;7.268;2023-08-12T03:58:56;10.73;;;8.30;;
11078;SDS011;5592;49.234;7.268;2023-08-12T04:01:21;12.40;;;9.00;;
11078;SDS011;5592;49.234;7.268;2023-08-12T04:03:47;14.27;;;9.43;;
11078;SDS011;5592;49.234;7.268;2023-08-12T04:06:13;10.27;;;8.03;;
11078;SDS011;5592;49.234;7.268;2023-08-12T04:08:38;11.43;;;7.87;;
11078;SDS011;5592;49.234;7.268;2023-08-12T04:11:04;15.20;;;8.83;;
11078;SDS011;5592;49.234;7.268;2023-08-12T04:13:30;11.57;;;9.30;;
11078;SDS011;5592;49.234;7.268;2023-08-12T04:15:55;23.47;;;10.07;;
11078;SDS011;5592;49.234;7.268;2023-08-12T04:18:21;53.33;;;9.70;;
11078;SDS011;5592;49.234;7.268;2023-08-12T04:20:48;24.07;;;8.60;;
11078;SDS011;5592;49.234;7.268;2023-08-12T04:23:16;28.90;;;9.50;;
11078;SDS011;5592;49.234;7.268;2023-08-12T04:25:46;32.33;;;9.10;;
11078;SDS011;5592;49.234;7.268;2023-08-12T04:28:13;22.10;;;8.27;;
11078;SDS011;5592;49.234;7.268;2023-08-12T04:30:42;116.00;;;12.57;;
11078;SDS011;5592;49.234;7.268;2023-08-12T04:33:12;53.80;;;11.63;;
11078;SDS011;5592;49.234;7.268;2023-08-12T04:35:39;42.33;;;11.70;;
11078;SDS011;5592;49.234;7.268;2023-08-12T04:38:05;31.20;;;10.67;;
11078;SDS011;5592;49.234;7.268;2023-08-12T04:40:31;47.10;;;12.00;;
11078;SDS011;5592;49.234;7.268;2023-08-12T04:43:00;33.77;;;11.93;;
11078;SDS011;5592;49.234;7.268;2023-08-12T04:45:26;40.43;;;12.37;;
11078;SDS011;5592;49.234;7.268;2023-08-12T04:47:52;48.40;;;11.90;;
11078;SDS011;5592;49.234;7.268;2023-08-12T04:50:18;63.70;;;13.47;;
11078;SDS011;5592;49.234;7.268;2023-08-12T04:52:44;22.50;;;13.70;;
11078;SDS011;5592;49.234;7.268;2023-08-12T04:55:11;24.47;;;15.47;;
11078;SDS011;5592;49.234;7.268;2023-08-12T04:57:37;30.77;;;14.87;;
11078;SDS011;5592;49.234;7.268;2023-08-12T05:00:03;20.73;;;13.30;;
11078;SDS011;5592;49.234;7.268;2023-08-12T05:02:34;17.73;;;13.63;;
11078;SDS011;5592;49.234;7.268;2023-08-12T05:05:00;17.63;;;10.90;;
11078;SDS011;5592;49.234;7.268;2023-08-12T05:07:26;17.43;;;10.57;;
11078;SDS011;5592;49.234;7.268;2023-08-12T05:09:52;24.07;;;10.33;;
11078;SDS011;5592;49.234;7.268;2023-08-12T05:12:17;15.10;;;10.90;;
11078;SDS011;5592;49.234;7.268;2023-08-12T05:14:43;13.03;;;9.00;;
11078;SDS011;5592;49.234;7.268;2023-08-12T05:17:09;15.80;;;9.60;;
11078;SDS011;5592;49.234;7.268;2023-08-12T05:19:35;9.53;;;8.30;;
11078;SDS011;5592;49.234;7.268;2023-08-12T05:22:01;17.57;;;8.83;;
11078;SDS011;5592;49.234;7.268;2023-08-12T05:24:26;10.63;;;8.30;;
11078;SDS011;5592;49.234;7.268;2023-08-12T05:26:52;11.17;;;7.60;;
11078;SDS011;5592;49.234;7.268;2023-08-12T05:29:17;8.50;;;7.70;;
11078;SDS011;5592;49.234;7.268;2023-08-12T05:31:43;11.90;;;7.90;;
11078;SDS011;5592;49.234;7.268;2023-08-12T05:34:08;11.27;;;8.47;;
11078;SDS011;5592;49.234;7.268;2023-08-12T05:36:35;8.50;;;7.80;;
11078;SDS011;5592;49.234;7.268;2023-08-12T05:39:01;8.90;;;8.00;;
11078;SDS011;5592;49.234;7.268;2023-08-12T05:41:26;10.13;;;7.07;;
11078;SDS011;5592;49.234;7.268;2023-08-12T05:43:52;6.27;;;5.67;;
11078;SDS011;5592;49.234;7.268;2023-08-12T05:46:17;7.77;;;6.20;;
11078;SDS011;5592;49.234;7.268;2023-08-12T05:48:43;8.07;;;6.40;;
11078;SDS011;5592;49.234;7.268;2023-08-12T05:51:09;7.17;;;6.43;;
11078;SDS011;5592;49.234;7.268;2023-08-12T05:53:35;6.53;;;5.93;;
11078;SDS011;5592;49.234;7.268;2023-08-12T05:56:01;7.13;;;6.50;;
11078;SDS011;5592;49.234;7.268;2023-08-12T05:58:27;9.20;;;6.80;;
11078;SDS011;5592;49.234;7.268;2023-08-12T06:00:52;7.23;;;6.10;;
11078;SDS011;5592;49.234;7.268;2023-08-12T06:03:18;8.07;;;6.90;;
11078;SDS011;5592;49.234;7.268;2023-08-12T06:05:47;7.83;;;7.03;;
11078;SDS011;5592;49.234;7.268;2023-08-12T06:08:13;6.73;;;6.13;;
11078;SDS011;5592;49.234;7.268;2023-08-12T06:10:39;6.57;;;5.67;;
11078;SDS011;5592;49.234;7.268;2023-08-12T06:13:04;6.53;;;5.90;;
11078;SDS011;5592;49.234;7.268;2023-08-12T06:15:31;6.73;;;5.50;;
11078;SDS011;5592;49.234;7.268;2023-08-12T06:17:57;5.43;;;4.93;;
11078;SDS011;5592;49.234;7.268;2023-08-12T06:20:23;5.57;;;5.07;;
11078;SDS011;5592;49.234;7.268;2023-08-12T06:22:49;7.17;;;5.77;;
11078;SDS011;5592;49.234;7.268;2023-08-12T06:25:15;10.93;;;5.90;;
11078;SDS011;5592;49.234;7.268;2023-08-12T06:27:41;7.73;;;5.53;;
11078;SDS011;5592;49.234;7.268;2023-08-12T06:30:07;7.60;;;5.83;;
11078;SDS011;5592;49.234;7.268;2023-08-12T06:32:33;8.93;;;6.30;;
11078;SDS011;5592;49.234;7.268;2023-08-12T06:34:59;6.63;;;5.93;;
11078;SDS011;5592;49.234;7.268;2023-08-12T06:37:25;5.97;;;4.87;;
11078;SDS011;5592;49.234;7.268;2023-08-12T06:39:51;5.43;;;4.93;;
11078;SDS011;5592;49.234;7.268;2023-08-12T06:42:16;5.10;;;4.60;;
11078;SDS011;5592;49.234;7.268;2023-08-12T06:44:42;5.90;;;4.63;;
11078;SDS011;5592;49.234;7.268;2023-08-12T06:47:07;5.70;;;4.67;;
11078;SDS011;5592;49.234;7.268;2023-08-12T06:49:33;7.50;;;4.47;;
11078;SDS011;5592;49.234;7.268;2023-08-12T06:51:59;5.07;;;4.43;;
11078;SDS011;5592;49.234;7.268;2023-08-12T06:54:24;5.63;;;5.00;;
11078;SDS011;5592;49.234;7.268;2023-08-12T06:56:50;5.70;;;4.17;;
11078;SDS011;5592;49.234;7.268;2023-08-12T06:59:15;5.10;;;4.30;;
11078;SDS011;5592;49.234;7.268;2023-08-12T07:01:42;8.27;;;4.50;;
11078;SDS011;5592;49.234;7.268;2023-08-12T07:04:07;5.67;;;4.27;;
11078;SDS011;5592;49.234;7.268;2023-08-12T07:06:33;6.80;;;4.67;;
11078;SDS011;5592;49.234;7.268;2023-08-12T07:08:58;7.57;;;4.50;;
11078;SDS011;5592;49.234;7.268;2023-08-12T07:11:24;5.80;;;4.80;;
11078;SDS011;5592;49.234;7.268;2023-08-12T07:13:50;5.93;;;4.50;;
11078;SDS011;5592;49.234;7.268;2023-08-12T07:16:15;6.70;;;5.07;;
11078;SDS011;5592;49.234;7.268;2023-08-12T07:18:41;5.60;;;5.10;;
11078;SDS011;5592;49.234;7.268;2023-08-12T07:21:07;5.67;;;4.80;;
11078;SDS011;5592;49.234;7.268;2023-08-12T07:23:32;5.07;;;4.57;;
11078;SDS011;5592;49.234;7.268;2023-08-12T07:25:58;6.27;;;5.63;;
11078;SDS011;5592;49.234;7.268;2023-08-12T07:28:23;7.40;;;4.90;;
11078;SDS011;5592;49.234;7.268;2023-08-12T07:30:49;8.27;;;5.37;;
11078;SDS011;5592;49.234;7.268;2023-08-12T07:33:15;5.70;;;5.20;;
11078;SDS011;5592;49.234;7.268;2023-08-12T07:35:40;9.33;;;5.83;;
11078;SDS011;5592;49.234;7.268;2023-08-12T07:38:06;5.83;;;4.87;;
11078;SDS011;5592;49.234;7.268;2023-08-12T07:40:34;7.50;;;5.47;;
11078;SDS011;5592;49.234;7.268;2023-08-12T07:43:00;6.27;;;4.80;;
11078;SDS011;5592;49.234;7.268;2023-08-12T07:45:26;7.47;;;5.90;;
11078;SDS011;5592;49.234;7.268;2023-08-12T07:47:51;7.07;;;5.10;;
11078;SDS011;5592;49.234;7.268;2023-08-12T07:50:17;5.50;;;5.00;;
11078;SDS011;5592;49.234;7.268;2023-08-12T07:52:43;6.17;;;4.33;;
11078;SDS011;5592;49.234;7.268;2023-08-12T07:55:09;5.97;;;5.03;;
11078;SDS011;5592;49.234;7.268;2023-08-12T07:57:34;5.90;;;4.60;;
11078;SDS011;5592;49.234;7.268;2023-08-12T08:00:00;5.43;;;4.93;;
11078;SDS011;5592;49.234;7.268;2023-08-12T08:02:26;16.87;;;13.07;;
11078;SDS011;5592;49.234;7.268;2023-08-12T08:04:51;7.73;;;6.93;;
11078;SDS011;5592;49.234;7.268;2023-08-12T08:07:17;4.83;;;4.30;;
11078;SDS011;5592;49.234;7.268;2023-08-12T08:09:43;7.83;;;5.27;;
11078;SDS011;5592;49.234;7.268;2023-08-12T08:12:09;8.50;;;5.63;;
11078;SDS011;5592;49.234;7.268;2023-08-12T08:14:35;6.20;;;4.47;;
11078;SDS011;5592;49.234;7.268;2023-08-12T08:17:01;5.40;;;4.60;;
11078;SDS011;5592;49.234;7.268;2023-08-12T08:19:28;6.73;;;4.07;;
11078;SDS011;5592;49.234;7.268;2023-08-12T08:21:54;5.10;;;4.33;;
11078;SDS011;5592;49.234;7.268;2023-08-12T08:24:20;4.67;;;4.20;;
11078;SDS011;5592;49.234;7.268;2023-08-12T08:26:45;5.97;;;4.03;;
11078;SDS011;5592;49.234;7.268;2023-08-12T08:29:12;4.00;;;3.63;;
11078;SDS011;5592;49.234;7.268;2023-08-12T08:31:38;4.57;;;3.50;;
11078;SDS011;5592;49.234;7.268;2023-08-12T08:34:03;4.67;;;4.27;;
11078;SDS011;5592;49.234;7.268;2023-08-12T08:36:29;5.00;;;4.47;;
11078;SDS011;5592;49.234;7.268;2023-08-12T08:38:55;4.53;;;4.10;;
11078;SDS011;5592;49.234;7.268;2023-08-12T08:41:21;8.97;;;4.87;;
11078;SDS011;5592;49.234;7.268;2023-08-12T08:43:47;5.90;;;4.40;;
11078;SDS011;5592;49.234;7.268;2023-08-12T08:46:14;14.57;;;5.30;;
11078;SDS011;5592;49.234;7.268;2023-08-12T08:48:41;4.40;;;4.00;;
11078;SDS011;5592;49.234;7.268;2023-08-12T08:51:08;5.60;;;4.50;;
11078;SDS011;5592;49.234;7.268;2023-08-12T08:53:38;7.07;;;4.47;;
11078;SDS011;5592;49.234;7.268;2023-08-12T08:56:05;5.90;;;4.40;;
11078;SDS011;5592;49.234;7.268;2023-08-12T08:58:39;4.70;;;3.80;;
11078;SDS011;5592;49.234;7.268;2023-08-12T09:01:05;4.33;;;3.60;;
11078;SDS011;5592;49.234;7.268;2023-08-12T09:03:35;4.63;;;3.93;;
11078;SDS011;5592;49.234;7.268;2023-08-12T09:06:02;6.13;;;4.20;;
11078;SDS011;5592;49.234;7.268;2023-08-12T09:08:29;4.57;;;4.17;;
11078;SDS011;5592;49.234;7.268;2023-08-12T09:10:57;6.47;;;4.03;;
11078;SDS011;5592;49.234;7.268;2023-08-12T09:13:25;8.00;;;3.90;;
11078;SDS011;5592;49.234;7.268;2023-08-12T09:15:51;4.83;;;3.77;;
11078;SDS011;5592;49.234;7.268;2023-08-12T09:18:17;3.83;;;3.50;;
11078;SDS011;5592;49.234;7.268;2023-08-12T09:20:42;5.53;;;4.30;;
11078;SDS011;5592;49.234;7.268;2023-08-12T09:23:08;5.63;;;3.80;;
11078;SDS011;5592;49.234;7.268;2023-08-12T09:25:36;7.87;;;3.90;;
11078;SDS011;5592;49.234;7.268;2023-08-12T09:28:10;8.20;;;3.80;;
11078;SDS011;5592;49.234;7.268;2023-08-12T09:30:36;5.30;;;3.90;;
11078;SDS011;5592;49.234;7.268;2023-08-12T09:33:06;5.63;;;3.63;;
11078;SDS011;5592;49.234;7.268;2023-08-12T09:35:33;9.10;;;4.17;;
11078;SDS011;5592;49.234;7.268;2023-08-12T09:38:03;9.73;;;4.80;;
11078;SDS011;5592;49.234;7.268;2023-08-12T09:40:34;4.50;;;3.90;;
11078;SDS011;5592;49.234;7.268;2023-08-12T09:43:00;5.70;;;4.37;;
11078;SDS011;5592;49.234;7.268;2023-08-12T09:45:27;5.10;;;3.63;;
11078;SDS011;5592;49.234;7.268;2023-08-12T09:47:53;7.50;;;3.90;;
11078;SDS011;5592;49.234;7.268;2023-08-12T09:50:23;6.03;;;3.80;;
11078;SDS011;5592;49.234;7.268;2023-08-12T09:52:50;7.93;;;4.00;;
11078;SDS011;5592;49.234;7.268;2023-08-12T09:55:17;7.20;;;4.40;;
11078;SDS011;5592;49.234;7.268;2023-08-12T09:57:43;9.43;;;3.80;;
11078;SDS011;5592;49.234;7.268;2023-08-12T10:00:11;4.80;;;4.30;;
11078;SDS011;5592;49.234;7.268;2023-08-12T10:02:41;7.40;;;4.50;;
11078;SDS011;5592;49.234;7.268;2023-08-12T10:05:12;7.97;;;4.50;;
11078;SDS011;5592;49.234;7.268;2023-08-12T10:07:43;6.03;;;4.50;;
11078;SDS011;5592;49.234;7.268;2023-08-12T10:10:11;8.73;;;4.90;;
11078;SDS011;5592;49.234;7.268;2023-08-12T10:12:38;6.53;;;4.90;;
11078;SDS011;5592;49.234;7.268;2023-08-12T10:15:05;5.77;;;4.03;;
11078;SDS011;5592;49.234;7.268;2023-08-12T10:17:31;5.67;;;4.60;;
11078;SDS011;5592;49.234;7.268;2023-08-12T10:19:58;4.50;;;4.10;;
11078;SDS011;5592;49.234;7.268;2023-08-12T10:22:29;5.97;;;4.53;;
11078;SDS011;5592;49.234;7.268;2023-08-12T10:24:56;5.93;;;4.33;;
11078;SDS011;5592;49.234;7.268;2023-08-12T10:27:23;5.77;;;3.70;;
11078;SDS011;5592;49.234;7.268;2023-08-12T10:29:51;7.00;;;4.40;;
11078;SDS011;5592;49.234;7.268;2023-08-12T10:32:17;4.07;;;3.67;;
11078;SDS011;5592;49.234;7.268;2023-08-12T10:34:42;4.50;;;4.10;;
11078;SDS011;5592;49.234;7.268;2023-08-12T10:37:09;8.43;;;3.80;;
11078;SDS011;5592;49.234;7.268;2023-08-12T10:39:36;4.53;;;3.23;;
11078;SDS011;5592;49.234;7.268;2023-08-12T10:42:02;4.73;;;3.73;;
11078;SDS011;5592;49.234;7.268;2023-08-12T10:44:43;5.20;;;3.30;;
11078;SDS011;5592;49.234;7.268;2023-08-12T10:47:19;4.67;;;2.90;;
11078;SDS011;5592;49.234;7.268;2023-08-12T10:49:48;3.73;;;2.73;;
11078;SDS011;5592;49.234;7.268;2023-08-12T10:52:27;6.40;;;3.00;;
11078;SDS011;5592;49.234;7.268;2023-08-12T10:57:57;4.87;;;2.70;;
11078;SDS011;5592;49.234;7.268;2023-08-12T11:00:27;3.10;;;2.40;;
11078;SDS011;5592;49.234;7.268;2023-08-12T11:02:54;2.27;;;2.07;;
11078;SDS011;5592;49.234;7.268;2023-08-12T11:05:22;2.97;;;2.10;;
11078;SDS011;5592;49.234;7.268;2023-08-12T11:07:55;2.80;;;2.60;;
11078;SDS011;5592;49.234;7.268;2023-08-12T11:10:23;5.27;;;2.80;;
11078;SDS011;5592;49.234;7.268;2023-08-12T11:15:40;4.23;;;2.70;;
11078;SDS011;5592;49.234;7.268;2023-08-12T11:18:08;4.80;;;2.77;;
11078;SDS011;5592;49.234;7.268;2023-08-12T11:20:35;3.27;;;2.30;;
11078;SDS011;5592;49.234;7.268;2023-08-12T11:23:02;3.63;;;2.17;;
11078;SDS011;5592;49.234;7.268;2023-08-12T11:25:30;6.83;;;2.63;;
11078;SDS011;5592;49.234;7.268;2023-08-12T11:27:57;2.40;;;2.20;;
11078;SDS011;5592;49.234;7.268;2023-08-12T11:30:23;2.77;;;2.07;;
11078;SDS011;5592;49.234;7.268;2023-08-12T11:32:50;3.43;;;2.57;;
11078;SDS011;5592;49.234;7.268;2023-08-12T11:35:17;3.43;;;2.23;;
11078;SDS011;5592;49.234;7.268;2023-08-12T11:37:45;4.03;;;2.30;;
11078;SDS011;5592;49.234;7.268;2023-08-12T11:40:12;2.30;;;2.10;;
11078;SDS011;5592;49.234;7.268;2023-08-12T11:42:40;4.33;;;2.40;;
11078;SDS011;5592;49.234;7.268;2023-08-12T11:45:07;3.80;;;2.00;;
11078;SDS011;5592;49.234;7.268;2023-08-12T11:47:34;3.50;;;2.30;;
11078;SDS011;5592;49.234;7.268;2023-08-12T11:50:03;2.53;;;2.17;;
11078;SDS011;5592;49.234;7.268;2023-08-12T11:52:29;2.60;;;2.20;;
11078;SDS011;5592;49.234;7.268;2023-08-12T11:54:56;2.10;;;2.00;;
11078;SDS011;5592;49.234;7.268;2023-08-12T11:57:22;2.30;;;2.10;;
11078;SDS011;5592;49.234;7.268;2023-08-12T11:59:48;3.07;;;2.00;;
11078;SDS011;5592;49.234;7.268;2023-08-12T12:02:18;3.47;;;2.53;;
11078;SDS011;5592;49.234;7.268;2023-08-12T12:04:44;5.20;;;2.30;;
11078;SDS011;5592;49.234;7.268;2023-08-12T12:07:20;2.97;;;2.10;;
11078;SDS011;5592;49.234;7.268;2023-08-12T12:09:52;8.73;;;3.17;;
11078;SDS011;5592;49.234;7.268;2023-08-12T12:12:22;2.10;;;1.90;;
11078;SDS011;5592;49.234;7.268;2023-08-12T12:14:52;3.43;;;2.30;;
11078;SDS011;5592;49.234;7.268;2023-08-12T12:17:20;3.03;;;2.23;;
11078;SDS011;5592;49.234;7.268;2023-08-12T12:19:47;3.63;;;2.20;;
11078;SDS011;5592;49.234;7.268;2023-08-12T12:22:16;4.63;;;2.07;;
11078;SDS011;5592;49.234;7.268;2023-08-12T12:24:45;3.23;;;2.33;;
11078;SDS011;5592;49.234;7.268;2023-08-12T12:27:12;4.63;;;2.03;;
11078;SDS011;5592;49.234;7.268;2023-08-12T12:29:38;5.90;;;2.30;;
11078;SDS011;5592;49.234;7.268;2023-08-12T12:32:04;2.60;;;2.10;;
11078;SDS011;5592;49.234;7.268;2023-08-12T12:34:30;4.20;;;2.10;;
11078;SDS011;5592;49.234;7.268;2023-08-12T12:36:55;2.10;;;1.90;;
11078;SDS011;5592;49.234;7.268;2023-08-12T12:39:21;4.30;;;2.00;;
11078;SDS011;5592;49.234;7.268;2023-08-12T12:41:48;3.73;;;2.17;;
11078;SDS011;5592;49.234;7.268;2023-08-12T12:44:14;2.23;;;1.53;;
11078;SDS011;5592;49.234;7.268;2023-08-12T12:46:42;3.87;;;2.30;;
11078;SDS011;5592;49.234;7.268;2023-08-12T12:49:08;4.13;;;2.43;;
11078;SDS011;5592;49.234;7.268;2023-08-12T12:51:34;5.33;;;2.20;;
11078;SDS011;5592;49.234;7.268;2023-08-12T12:53:59;2.50;;;1.93;;
11078;SDS011;5592;49.234;7.268;2023-08-12T12:56:25;4.20;;;2.10;;
11078;SDS011;5592;49.234;7.268;2023-08-12T12:58:50;1.77;;;1.60;;
11078;SDS011;5592;49.234;7.268;2023-08-12T13:01:16;4.83;;;2.00;;
11078;SDS011;5592;49.234;7.268;2023-08-12T13:03:41;3.60;;;2.03;;
11078;SDS011;5592;49.234;7.268;2023-08-12T13:06:07;3.13;;;2.10;;
11078;SDS011;5592;49.234;7.268;2023-08-12T13:08:33;2.33;;;2.13;;
11078;SDS011;5592;49.234;7.268;2023-08-12T13:10:58;3.67;;;2.50;;
11078;SDS011;5592;49.234;7.268;2023-08-12T13:13:24;3.87;;;2.10;;
11078;SDS011;5592;49.234;7.268;2023-08-12T13:15:50;3.30;;;2.20;;
11078;SDS011;5592;49.234;7.268;2023-08-12T13:18:16;2.70;;;1.90;;
11078;SDS011;5592;49.234;7.268;2023-08-12T13:20:41;3.80;;;2.67;;
11078;SDS011;5592;49.234;7.268;2023-08-12T13:23:07;6.73;;;2.40;;
11078;SDS011;5592;49.234;7.268;2023-08-12T13:25:33;3.30;;;2.03;;
11078;SDS011;5592;49.234;7.268;2023-08-12T13:28:02;5.73;;;2.23;;
11078;SDS011;5592;49.234;7.268;2023-08-12T13:30:29;2.23;;;1.93;;
11078;SDS011;5592;49.234;7.268;2023-08-12T13:32:55;2.80;;;2.00;;
11078;SDS011;5592;49.234;7.268;2023-08-12T13:35:21;3.30;;;2.10;;
11078;SDS011;5592;49.234;7.268;2023-08-12T13:37:47;2.93;;;2.47;;
11078;SDS011;5592;49.234;7.268;2023-08-12T13:40:14;3.67;;;2.30;;
11078;SDS011;5592;49.234;7.268;2023-08-12T13:42:40;3.70;;;2.33;;
11078;SDS011;5592;49.234;7.268;2023-08-12T13:45:07;3.43;;;2.33;;
11078;SDS011;5592;49.234;7.268;2023-08-12T13:47:33;3.23;;;2.20;;
11078;SDS011;5592;49.234;7.268;2023-08-12T13:49:59;3.30;;;1.90;;
11078;SDS011;5592;49.234;7.268;2023-08-12T13:52:25;3.40;;;2.07;;
11078;SDS011;5592;49.234;7.268;2023-08-12T13:54:50;3.90;;;2.13;;
11078;SDS011;5592;49.234;7.268;2023-08-12T13:57:16;5.73;;;2.63;;
11078;SDS011;5592;49.234;7.268;2023-08-12T13:59:42;3.13;;;2.40;;
11078;SDS011;5592;49.234;7.268;2023-08-12T14:02:09;9.03;;;3.23;;
11078;SDS011;5592;49.234;7.268;2023-08-12T14:04:35;5.83;;;2.60;;
11078;SDS011;5592;49.234;7.268;2023-08-12T14:07:02;4.87;;;3.50;;
11078;SDS011;5592;49.234;7.268;2023-08-12T14:09:29;3.90;;;2.97;;
11078;SDS011;5592;49.234;7.268;2023-08-12T14:11:54;4.73;;;3.10;;
11078;SDS011;5592;49.234;7.268;2023-08-12T14:14:20;5.80;;;3.43;;
11078;SDS011;5592;49.234;7.268;2023-08-12T14:16:45;6.00;;;3.03;;
11078;SDS011;5592;49.234;7.268;2023-08-12T14:19:11;3.03;;;2.40;;
11078;SDS011;5592;49.234;7.268;2023-08-12T14:21:37;4.90;;;2.70;;
11078;SDS011;5592;49.234;7.268;2023-08-12T14:24:03;7.37;;;2.93;;
11078;SDS011;5592;49.234;7.268;2023-08-12T14:26:28;5.37;;;2.83;;
11078;SDS011;5592;49.234;7.268;2023-08-12T14:28:54;3.93;;;2.70;;
11078;SDS011;5592;49.234;7.268;2023-08-12T14:31:22;6.03;;;3.07;;
11078;SDS011;5592;49.234;7.268;2023-08-12T14:33:48;4.53;;;2.57;;
11078;SDS011;5592;49.234;7.268;2023-08-12T14:36:13;6.43;;;2.47;;
11078;SDS011;5592;49.234;7.268;2023-08-12T14:38:39;4.37;;;2.90;;
11078;SDS011;5592;49.234;7.268;2023-08-12T14:41:04;3.17;;;2.27;;
11078;SDS011;5592;49.234;7.268;2023-08-12T14:43:30;2.00;;;1.70;;
11078;SDS011;5592;49.234;7.268;2023-08-12T14:45:55;3.50;;;1.97;;
11078;SDS011;5592;49.234;7.268;2023-08-12T14:48:22;3.00;;;1.90;;
11078;SDS011;5592;49.234;7.268;2023-08-12T14:50:48;3.83;;;1.77;;
11078;SDS011;5592;49.234;7.268;2023-08-12T14:53:14;2.33;;;1.90;;
11078;SDS011;5592;49.234;7.268;2023-08-12T14:55:40;3.30;;;1.67;;
11078;SDS011;5592;49.234;7.268;2023-08-12T14:58:07;6.53;;;1.87;;
11078;SDS011;5592;49.234;7.268;2023-08-12T15:00:35;5.33;;;2.27;;
11078;SDS011;5592;49.234;7.268;2023-08-12T15:03:01;5.47;;;2.20;;
11078;SDS011;5592;49.234;7.268;2023-08-12T15:05:26;3.00;;;2.00;;